Time;durP1;ratioP1;P1;durP2;ratioP2;P2;SDS_P1;SDS_P2;PMS_P1;PMS_P2;Temp;Humidity;BMP_temperature;BMP_pressure;BME280_temperature;BME280_humidity;BME280_pressure;Samples;Min_cycle;Max_cycle;Signal;HPM_P1;HPM_P2
2022/02/09 00:04:57;;;;;;;;;;;4.30;99.90;;;;;;5061755;28;20317;-72
2022/02/09 00:07:34;;;;;;;;;;;4.30;99.90;;;;;;5074403;28;19984;-70
2022/02/09 00:09:59;;;;;;;;;;;4.30;99.90;;;;;;5078705;28;20475;-71
2022/02/09 00:12:32;;;;;;;;;;;4.30;99.90;;;;;;5062195;28;19913;-71
2022/02/09 00:28:23;;;;;;;;;;;4.30;99.90;;;;;;5060000;28;20009;-71
2022/02/09 00:36:39;;;;;;;;;;;4.30;99.90;;;;;;5062515;28;20353;-72
2022/02/09 00:39:26;;;;;;;;;;;4.20;99.90;;;;;;5078993;28;20274;-71
2022/02/09 00:44:46;;;;;;;;;;;4.30;99.90;;;;;;5061629;28;20023;-68
2022/02/09 01:57:15;;;;;;;;;;;4.20;99.90;;;;;;5054942;28;19939;-71
2022/02/09 01:59:42;;;;;;;;;;;4.20;99.90;;;;;;5076139;28;19951;-71
2022/02/09 02:02:08;;;;;;;;;;;4.20;99.90;;;;;;5064968;28;19913;-71
2022/02/09 02:04:34;;;;;;;;;;;4.20;99.90;;;;;;5052820;28;19958;-71
2022/02/09 02:07:02;;;;;;;;;;;4.10;99.90;;;;;;5070097;28;20482;-71
2022/02/09 02:09:32;;;;;;;;;;;4.10;99.90;;;;;;5057262;28;20562;-70
2022/02/09 02:12:07;;;;;;;;;;;4.10;99.90;;;;;;5057295;28;19924;-70
2022/02/09 02:14:42;;;;;;;;;;;4.00;99.90;;;;;;5072712;28;19917;-69
2022/02/09 02:17:17;;;;;;;;;;;4.10;99.90;;;;;;5055838;28;19923;-71
2022/02/09 02:19:55;;;;;;;;;;;4.10;99.90;;;;;;5070228;28;20325;-71
2022/02/09 02:30:19;;;;;;;;;;;4.20;99.90;;;;;;5053835;28;19968;-71
2022/02/09 02:44:10;;;;;;;;;;;4.30;99.90;;;;;;5031470;28;19914;-69
2022/02/09 03:13:30;;;;;;;;;;;4.00;99.90;;;;;;5056925;28;20019;-70
2022/02/09 03:16:05;;;;;;;;;;;4.00;99.90;;;;;;5068300;28;19912;-70
2022/02/09 03:24:43;;;;;;;;;;;4.10;99.90;;;;;;5025596;28;19913;-71
2022/02/09 03:30:57;;;;;;;;;;;4.10;99.90;;;;;;5049793;28;19974;-71
2022/02/09 03:43:57;;;;;;;;;;;4.10;99.90;;;;;;5061859;28;19967;-70
2022/02/09 03:59:19;;;;;;;;;;;4.00;99.90;;;;;;5063275;28;19969;-71
2022/02/09 04:01:45;;;;;;;;;;;4.00;99.90;;;;;;5055528;28;19916;-70
2022/02/09 04:04:11;;;;;;;;;;;4.10;99.90;;;;;;5065965;28;19918;-71
2022/02/09 04:06:38;;;;;;;;;;;4.20;99.90;;;;;;5064334;28;19913;-71
2022/02/09 04:09:07;;;;;;;;;;;4.20;99.90;;;;;;5060114;28;19912;-73
2022/02/09 04:11:39;;;;;;;;;;;4.30;99.90;;;;;;5057730;28;20255;-69
2022/02/09 04:16:44;;;;;;;;;;;4.20;99.90;;;;;;5056091;28;19920;-70
2022/02/09 04:20:09;;;;;;;;;;;4.10;99.90;;;;;;5059982;28;20013;-72
2022/02/09 04:49:08;;;;;;;;;;;3.70;99.90;;;;;;5061592;28;19919;-71
2022/02/09 04:54:25;;;;;;;;;;;3.80;99.90;;;;;;5063053;28;19925;-71
2022/02/09 04:57:15;;;;;;;;;;;3.80;99.90;;;;;;5074263;28;19920;-72
2022/02/09 05:00:07;;;;;;;;;;;3.80;99.90;;;;;;5062605;28;19916;-71
2022/02/09 05:03:04;;;;;;;;;;;3.80;99.90;;;;;;5062046;28;20008;-71
2022/02/09 05:25:00;;;;;;;;;;;4.00;99.90;;;;;;5057155;28;20288;-71
2022/02/09 05:30:10;;;;;;;;;;;3.80;99.90;;;;;;5054287;28;20393;-71
2022/02/09 05:32:36;;;;;;;;;;;3.70;99.90;;;;;;5052394;28;19913;-68
2022/02/09 05:35:01;;;;;;;;;;;3.60;99.90;;;;;;5078164;28;19960;-71
2022/02/09 05:37:27;;;;;;;;;;;3.50;99.90;;;;;;5057759;28;19913;-70
2022/02/09 05:39:52;;;;;;;;;;;3.40;99.90;;;;;;5056704;28;19916;-72
2022/02/09 05:42:18;;;;;;;;;;;3.40;99.90;;;;;;5060322;28;20346;-72
2022/02/09 05:44:44;;;;;;;;;;;3.70;99.90;;;;;;5064537;28;19916;-72
2022/02/09 05:49:47;;;;;;;;;;;3.90;99.90;;;;;;5053214;28;19912;-72
2022/02/09 05:52:28;;;;;;;;;;;3.90;99.90;;;;;;5052455;28;20846;-71
2022/02/09 05:57:47;;;;;;;;;;;3.90;99.90;;;;;;5056949;28;20336;-69
2022/02/09 06:00:14;;;;;;;;;;;3.90;99.90;;;;;;5055318;28;19916;-70
2022/02/09 06:02:40;;;;;;;;;;;3.90;99.90;;;;;;5072016;28;19912;-69
2022/02/09 06:05:05;;;;;;;;;;;3.90;99.90;;;;;;5065540;28;19987;-73
2022/02/09 06:07:31;;;;;;;;;;;3.90;99.90;;;;;;5068412;28;20058;-72
2022/02/09 06:09:57;;;;;;;;;;;3.80;99.90;;;;;;5063078;28;19912;-71
2022/02/09 06:12:34;;;;;;;;;;;3.90;99.90;;;;;;5062629;28;19924;-71
2022/02/09 06:20:17;;;;;;;;;;;3.90;99.90;;;;;;5064018;28;19919;-70
2022/02/09 06:22:43;;;;;;;;;;;3.90;99.90;;;;;;5066215;28;19913;-70
2022/02/09 06:25:09;;;;;;;;;;;3.90;99.90;;;;;;5077973;28;19971;-70
2022/02/09 06:27:34;;;;;;;;;;;3.90;99.90;;;;;;5067959;28;20406;-69
2022/02/09 06:30:00;;;;;;;;;;;3.90;99.90;;;;;;5063243;28;19961;-70
2022/02/09 06:32:27;;;;;;;;;;;3.90;99.90;;;;;;5077112;28;19951;-71
2022/02/09 06:34:53;;;;;;;;;;;3.90;99.90;;;;;;5057361;28;20575;-70
2022/02/09 06:37:23;;;;;;;;;;;3.90;99.90;;;;;;5061936;28;20003;-71
2022/02/09 06:39:56;;;;;;;;;;;3.90;99.90;;;;;;5056183;28;19916;-71
2022/02/09 06:42:23;;;;;;;;;;;3.90;99.90;;;;;;5059613;28;19916;-70
2022/02/09 06:44:53;;;;;;;;;;;3.90;99.90;;;;;;5061895;28;19917;-73
2022/02/09 06:47:23;;;;;;;;;;;4.00;99.90;;;;;;5065383;28;19916;-72
2022/02/09 06:49:56;;;;;;;;;;;3.90;99.90;;;;;;5056685;28;20022;-73
2022/02/09 06:52:22;;;;;;;;;;;3.90;99.90;;;;;;5068362;28;19927;-72
2022/02/09 06:55:07;;;;;;;;;;;4.00;99.90;;;;;;5059996;28;19917;-71
2022/02/09 06:57:46;;;;;;;;;;;4.10;99.90;;;;;;5051038;28;19920;-72
2022/02/09 07:00:12;;;;;;;;;;;4.10;99.90;;;;;;5055691;28;19924;-72
2022/02/09 07:02:41;;;;;;;;;;;4.20;99.90;;;;;;5057995;28;20347;-71
2022/02/09 07:05:10;;;;;;;;;;;4.20;99.90;;;;;;5053422;28;19917;-73
2022/02/09 07:07:41;;;;;;;;;;;4.30;99.90;;;;;;5054981;28;19916;-74
2022/02/09 07:10:18;;;;;;;;;;;4.40;99.90;;;;;;5053253;28;19923;-73
2022/02/09 07:12:56;;;;;;;;;;;4.40;99.90;;;;;;5062646;28;19966;-73
2022/02/09 07:15:31;;;;;;;;;;;4.50;99.90;;;;;;5056961;28;19932;-70
2022/02/09 07:18:07;;;;;;;;;;;4.60;99.90;;;;;;5052216;28;19912;-72
2022/02/09 07:20:54;;;;;;;;;;;4.70;99.90;;;;;;5056478;28;19935;-69
2022/02/09 07:23:35;;;;;;;;;;;4.90;99.90;;;;;;5071619;28;20041;-70
2022/02/09 07:28:29;;;;;;;;;;;5.10;99.90;;;;;;5057976;28;19924;-71
2022/02/09 07:30:54;;;;;;;;;;;5.10;99.90;;;;;;5064754;28;19908;-70
2022/02/09 07:33:20;;;;;;;;;;;5.10;99.90;;;;;;5063519;28;20615;-71
2022/02/09 07:35:46;;;;;;;;;;;5.10;99.90;;;;;;5063821;28;19928;-70
2022/02/09 07:38:14;;;;;;;;;;;5.10;99.90;;;;;;5069376;28;19913;-71
2022/02/09 07:40:47;;;;;;;;;;;5.20;99.90;;;;;;5065346;28;19920;-73
2022/02/09 07:43:23;;;;;;;;;;;5.20;99.90;;;;;;5062797;28;19913;-70
2022/02/09 07:51:11;;;;;;;;;;;5.80;99.90;;;;;;5059696;28;19933;-72
2022/02/09 07:53:46;;;;;;;;;;;6.00;99.90;;;;;;5058873;28;19974;-70
2022/02/09 07:56:12;;;;;;;;;;;6.20;99.90;;;;;;5063597;28;19963;-69
2022/02/09 07:58:37;;;;;;;;;;;6.30;99.90;;;;;;5070317;28;20004;-71
2022/02/09 08:01:03;;;;;;;;;;;6.40;99.90;;;;;;5057149;28;19936;-70
2022/02/09 08:03:28;;;;;;;;;;;6.40;99.90;;;;;;5076487;28;19916;-72
2022/02/09 08:05:54;;;;;;;;;;;6.50;99.90;;;;;;5072659;28;19935;-71
2022/02/09 08:08:20;;;;;;;;;;;6.60;99.90;;;;;;5052280;28;20415;-70
2022/02/09 08:10:50;;;;;;;;;;;6.60;99.90;;;;;;5059522;28;19916;-71
2022/02/09 08:20:27;;;;;;;;;;;6.80;99.90;;;;;;5065737;28;19923;-71
2022/02/09 08:23:23;;;;;;;;;;;7.20;99.90;;;;;;5060740;28;20036;-70
2022/02/09 08:29:48;;;;;;;;;;;7.40;99.90;;;;;;5072162;28;19955;-70
2022/02/09 08:34:55;;;;;;;;;;;7.40;99.90;;;;;;5092897;28;19919;-71
2022/02/09 08:37:21;;;;;;;;;;;7.60;99.90;;;;;;5077173;28;19921;-71
2022/02/09 08:39:49;;;;;;;;;;;7.60;99.90;;;;;;5074382;28;20386;-70
2022/02/09 08:42:14;;;;;;;;;;;7.70;99.90;;;;;;5064956;28;19916;-70
2022/02/09 08:44:40;;;;;;;;;;;7.80;99.90;;;;;;5085646;28;19913;-70
2022/02/09 08:47:06;;;;;;;;;;;7.90;99.90;;;;;;5068102;28;19920;-68
2022/02/09 08:49:32;;;;;;;;;;;7.90;99.90;;;;;;5068595;28;20037;-71
2022/02/09 08:51:58;;;;;;;;;;;8.00;99.90;;;;;;5069657;28;19981;-70
2022/02/09 08:54:24;;;;;;;;;;;8.10;99.90;;;;;;5067987;28;20501;-71
2022/02/09 08:56:49;;;;;;;;;;;8.10;99.90;;;;;;5087222;28;19962;-71
2022/02/09 08:59:22;;;;;;;;;;;8.10;99.90;;;;;;5069105;28;20286;-70
2022/02/09 09:01:53;;;;;;;;;;;8.20;99.90;;;;;;5068964;28;20432;-70
2022/02/09 09:04:23;;;;;;;;;;;8.40;99.90;;;;;;5087015;28;19912;-68
2022/02/09 09:07:13;;;;;;;;;;;8.70;99.90;;;;;;5071634;28;19916;-69
2022/02/09 09:16:05;;;;;;;;;;;8.80;99.90;;;;;;5067047;28;19923;-73
2022/02/09 09:58:10;;;;;;;;;;;10.00;99.90;;;;;;5068852;28;19960;-70
2022/02/09 10:32:01;;;;;;;;;;;10.10;99.90;;;;;;5057554;28;19963;-69
2022/02/09 10:33:49;;;;;;;;;;;10.10;99.90;;;;;;5060084;28;19939;-71
2022/02/09 10:36:18;;;;;;;;;;;10.10;99.90;;;;;;5071226;28;19927;-71
2022/02/09 10:38:45;;;;;;;;;;;10.00;99.90;;;;;;5065303;28;20441;-69
2022/02/09 10:41:13;;;;;;;;;;;10.10;99.90;;;;;;5067671;28;19908;-69
2022/02/09 10:43:41;;;;;;;;;;;10.20;99.90;;;;;;5065853;28;19913;-69
2022/02/09 10:46:09;;;;;;;;;;;10.30;99.90;;;;;;5065496;28;20008;-70
2022/02/09 10:48:39;;;;;;;;;;;10.40;99.90;;;;;;5064167;28;20003;-74
2022/02/09 10:51:19;;;;;;;;;;;10.30;99.90;;;;;;5078149;28;19920;-70
2022/02/09 10:54:00;;;;;;;;;;;10.40;99.90;;;;;;5069975;28;19918;-71
2022/02/09 10:56:27;;;;;;;;;;;10.40;99.90;;;;;;5090927;28;19965;-70
2022/02/09 10:58:53;;;;;;;;;;;10.50;99.90;;;;;;5075507;28;20295;-73
2022/02/09 11:01:19;;;;;;;;;;;10.50;99.90;;;;;;5064816;28;19917;-70
2022/02/09 11:03:50;;;;;;;;;;;10.40;99.90;;;;;;5055115;28;19964;-70
2022/02/09 11:06:17;;;;;;;;;;;10.50;99.90;;;;;;5072732;28;20387;-69
2022/02/09 11:08:42;;;;;;;;;;;10.50;99.90;;;;;;5053670;28;19951;-69
2022/02/09 11:11:08;;;;;;;;;;;10.50;99.90;;;;;;5059306;28;19917;-69
2022/02/09 11:13:34;;;;;;;;;;;10.40;99.90;;;;;;5064694;28;19916;-70
2022/02/09 11:16:01;;;;;;;;;;;10.40;99.90;;;;;;5079732;28;19920;-70
2022/02/09 11:18:27;;;;;;;;;;;10.30;99.90;;;;;;5058946;28;19913;-71
2022/02/09 11:21:11;;;;;;;;;;;10.30;99.90;;;;;;5059622;28;19928;-70
2022/02/09 11:23:54;;;;;;;;;;;10.40;99.90;;;;;;5063645;28;20018;-70
2022/02/09 11:26:27;;;;;;;;;;;10.50;99.90;;;;;;5054045;28;19921;-73
2022/02/09 11:29:17;;;;;;;;;;;10.50;99.90;;;;;;5060922;28;20359;-70
2022/02/09 11:34:49;;;;;;;;;;;10.50;99.90;;;;;;5053450;28;20965;-69
2022/02/09 11:37:23;;;;;;;;;;;10.50;99.90;;;;;;5063664;28;19927;-70
2022/02/09 11:39:51;;;;;;;;;;;10.60;99.90;;;;;;5068559;28;19916;-71
2022/02/09 11:42:39;;;;;;;;;;;10.60;99.90;;;;;;5069284;28;20262;-69
2022/02/09 12:10:23;;;;;;;;;;;10.80;99.90;;;;;;4929470;29;19915;-70
2022/02/09 12:12:56;;;;;;;;;;;10.70;99.90;;;;;;4961696;28;19921;-69
2022/02/09 12:16:01;;;;;;;;;;;10.70;99.90;;;;;;5028293;28;20828;-73
2022/02/09 12:18:30;;;;;;;;;;;10.70;99.90;;;;;;5083263;28;19912;-70
2022/02/09 12:21:03;;;;;;;;;;;10.70;99.90;;;;;;5066110;28;19913;-72
2022/02/09 12:23:33;;;;;;;;;;;10.70;99.90;;;;;;5059108;28;20001;-70
2022/02/09 12:26:00;;;;;;;;;;;10.70;99.90;;;;;;5074596;28;19923;-71
2022/02/09 12:28:29;;;;;;;;;;;10.70;99.90;;;;;;5062973;28;19920;-71
2022/02/09 12:31:05;;;;;;;;;;;10.60;99.90;;;;;;5067304;28;19996;-71
2022/02/09 12:33:31;;;;;;;;;;;10.70;99.90;;;;;;5065226;28;20275;-70
2022/02/09 12:36:16;;;;;;;;;;;10.80;99.90;;;;;;5060112;28;19917;-70
2022/02/09 12:38:43;;;;;;;;;;;10.70;99.90;;;;;;5058692;28;19959;-71
2022/02/09 12:41:18;;;;;;;;;;;10.70;99.90;;;;;;5073720;28;19912;-71
2022/02/09 12:43:55;;;;;;;;;;;10.80;99.90;;;;;;5074809;28;19940;-71
2022/02/09 12:46:23;;;;;;;;;;;10.80;99.90;;;;;;5050908;28;20366;-70
2022/02/09 12:48:49;;;;;;;;;;;10.90;99.90;;;;;;5057794;28;20511;-72
2022/02/09 12:51:28;;;;;;;;;;;10.90;99.90;;;;;;5072906;28;19912;-71
2022/02/09 12:53:54;;;;;;;;;;;11.00;99.90;;;;;;5075021;28;20373;-70
2022/02/09 12:56:24;;;;;;;;;;;11.10;99.90;;;;;;5061750;28;19960;-69
2022/02/09 12:58:56;;;;;;;;;;;11.10;99.90;;;;;;5077334;28;20312;-70
2022/02/09 13:01:22;;;;;;;;;;;11.00;99.90;;;;;;5058499;28;20362;-70
2022/02/09 13:03:47;;;;;;;;;;;10.90;99.90;;;;;;5064191;28;19944;-71
2022/02/09 13:06:13;;;;;;;;;;;10.90;99.90;;;;;;5066450;28;19912;-71
2022/02/09 13:08:38;;;;;;;;;;;10.70;99.90;;;;;;5078514;28;20005;-71
2022/02/09 13:13:47;;;;;;;;;;;10.80;99.90;;;;;;5063754;28;19916;-71
2022/02/09 13:16:31;;;;;;;;;;;10.80;99.90;;;;;;5056429;28;19963;-70
2022/02/09 13:19:19;;;;;;;;;;;10.80;99.90;;;;;;5055605;28;19967;-70
2022/02/09 14:58:09;;;;;;;;;;;10.50;99.90;;;;;;5060029;28;20374;-70
2022/02/09 15:00:40;;;;;;;;;;;10.50;99.90;;;;;;5063841;28;19917;-70
2022/02/09 15:03:45;;;;;;;;;;;10.50;99.90;;;;;;5071011;28;20359;-70
2022/02/09 15:08:47;;;;;;;;;;;10.50;99.90;;;;;;5071129;28;19935;-72
2022/02/09 15:12:04;;;;;;;;;;;10.50;99.90;;;;;;5065564;28;20000;-72
2022/02/09 15:16:44;;;;;;;;;;;10.60;99.90;;;;;;5069444;28;19913;-71
2022/02/09 15:22:08;;;;;;;;;;;10.60;99.90;;;;;;5064371;28;19958;-69
2022/02/09 15:24:43;;;;;;;;;;;10.60;99.90;;;;;;5076097;28;19912;-71
2022/02/09 15:27:13;;;;;;;;;;;10.60;99.90;;;;;;5069941;28;19983;-73
2022/02/09 15:29:39;;;;;;;;;;;10.60;99.90;;;;;;5058390;28;20301;-70
2022/02/09 15:32:11;;;;;;;;;;;10.50;99.90;;;;;;5064665;28;19913;-69
2022/02/09 15:35:15;;;;;;;;;;;10.50;99.90;;;;;;5074987;28;20065;-71
2022/02/09 15:39:57;;;;;;;;;;;10.40;99.90;;;;;;5060776;28;19919;-70
2022/02/09 15:42:47;;;;;;;;;;;10.30;99.90;;;;;;5056763;28;19952;-70
2022/02/09 15:56:20;;;;;;;;;;;10.20;99.90;;;;;;5058297;28;19919;-70
2022/02/09 16:37:46;;;;;;;;;;;9.70;99.90;;;;;;5057026;28;20019;-71
2022/02/09 16:45:42;;;;;;;;;;;9.30;99.90;;;;;;5060064;28;19920;-73
2022/02/09 16:48:09;;;;;;;;;;;9.20;99.90;;;;;;5058681;28;19913;-72
2022/02/09 16:50:47;;;;;;;;;;;9.20;99.90;;;;;;5060414;28;19912;-73
2022/02/09 16:53:32;;;;;;;;;;;9.20;99.90;;;;;;5062186;28;20014;-73
2022/02/09 17:20:25;;;;;;;;;;;8.90;99.90;;;;;;5057804;28;19980;-70
2022/02/09 17:22:51;;;;;;;;;;;8.90;99.90;;;;;;5068038;28;19924;-70
2022/02/09 17:25:17;;;;;;;;;;;8.80;99.90;;;;;;5056725;28;19919;-71
2022/02/09 17:27:48;;;;;;;;;;;8.90;99.90;;;;;;5059527;28;20430;-70
2022/02/09 17:30:45;;;;;;;;;;;8.80;99.90;;;;;;5069742;28;19933;-71
2022/02/09 17:35:35;;;;;;;;;;;8.60;99.90;;;;;;5065548;28;20007;-71
2022/02/09 17:57:18;;;;;;;;;;;8.80;99.90;;;;;;5042372;28;19965;-75
2022/02/09 17:59:56;;;;;;;;;;;8.80;99.90;;;;;;5056679;28;19955;-72
2022/02/09 18:02:22;;;;;;;;;;;8.80;99.90;;;;;;5053250;28;19947;-72
2022/02/09 18:04:47;;;;;;;;;;;8.70;99.90;;;;;;5055311;28;20307;-72
2022/02/09 18:07:17;;;;;;;;;;;8.70;99.90;;;;;;5055433;28;19913;-73
2022/02/09 18:09:47;;;;;;;;;;;8.60;99.90;;;;;;5074013;28;19919;-76
2022/02/09 18:12:23;;;;;;;;;;;8.60;99.90;;;;;;5062513;28;19919;-74
2022/02/09 18:15:12;;;;;;;;;;;8.60;99.90;;;;;;5057736;28;19973;-74
2022/02/09 18:31:08;;;;;;;;;;;7.60;99.90;;;;;;5058841;28;19916;-74
2022/02/09 18:44:25;;;;;;;;;;;7.50;99.90;;;;;;5071712;28;19923;-74
2022/02/09 19:03:27;;;;;;;;;;;7.30;99.90;;;;;;5053173;28;19948;-72
2022/02/09 19:05:55;;;;;;;;;;;7.30;99.90;;;;;;5058536;28;20436;-73
2022/02/09 19:08:38;;;;;;;;;;;7.30;99.90;;;;;;5056616;28;19920;-72
2022/02/09 19:16:53;;;;;;;;;;;7.10;99.90;;;;;;5054870;28;19997;-72
2022/02/09 19:19:34;;;;;;;;;;;7.00;99.90;;;;;;5057588;28;19970;-75
2022/02/09 19:48:27;;;;;;;;;;;6.60;99.90;;;;;;5064327;28;19919;-75
2022/02/09 19:54:41;;;;;;;;;;;6.40;99.90;;;;;;5054814;28;19924;-74
2022/02/09 19:56:27;;;;;;;;;;;6.30;99.90;;;;;;5051996;28;20337;-75
2022/02/09 19:59:00;;;;;;;;;;;6.10;99.90;;;;;;5053379;28;20350;-74
2022/02/09 20:01:36;;;;;;;;;;;6.10;99.90;;;;;;5060264;28;20347;-73
2022/02/09 20:04:08;;;;;;;;;;;5.90;99.90;;;;;;5058776;28;20007;-77
2022/02/09 20:06:34;;;;;;;;;;;5.90;99.90;;;;;;5060120;28;19913;-74
2022/02/09 20:08:59;;;;;;;;;;;5.80;99.90;;;;;;5064910;28;19939;-73
2022/02/09 20:11:25;;;;;;;;;;;5.80;99.90;;;;;;5058946;28;19917;-73
2022/02/09 20:13:53;;;;;;;;;;;5.70;99.90;;;;;;5077167;28;19923;-73
2022/02/09 20:16:20;;;;;;;;;;;5.70;99.90;;;;;;5080183;28;19917;-73
2022/02/09 20:18:52;;;;;;;;;;;5.60;99.90;;;;;;5062759;28;19924;-72
2022/02/09 20:21:21;;;;;;;;;;;5.70;99.90;;;;;;5063120;28;19913;-73
2022/02/09 20:23:47;;;;;;;;;;;5.90;99.90;;;;;;5064694;28;19912;-74
2022/02/09 20:26:13;;;;;;;;;;;6.00;99.90;;;;;;5066587;28;19959;-72
2022/02/09 20:28:44;;;;;;;;;;;6.00;99.90;;;;;;5057909;28;19913;-75
2022/02/09 20:31:14;;;;;;;;;;;6.00;99.90;;;;;;5058045;28;20381;-74
2022/02/09 20:33:46;;;;;;;;;;;6.00;99.90;;;;;;5056361;28;19955;-75
2022/02/09 20:36:13;;;;;;;;;;;5.90;99.90;;;;;;5066225;28;19916;-73
2022/02/09 20:38:41;;;;;;;;;;;5.90;99.90;;;;;;5067067;28;19916;-74
2022/02/09 20:41:09;;;;;;;;;;;5.70;99.90;;;;;;5060418;28;19919;-72
2022/02/09 20:43:42;;;;;;;;;;;5.60;99.90;;;;;;5057143;28;19912;-72
2022/02/09 20:46:08;;;;;;;;;;;5.50;99.90;;;;;;5056271;28;19916;-74
2022/02/09 20:48:34;;;;;;;;;;;5.50;99.90;;;;;;5058652;28;20016;-74
2022/02/09 20:51:03;;;;;;;;;;;5.50;99.90;;;;;;5072120;28;20062;-76
2022/02/09 20:53:29;;;;;;;;;;;5.50;99.90;;;;;;5052907;28;19967;-74
2022/02/09 20:55:54;;;;;;;;;;;5.60;99.90;;;;;;5063302;28;20026;-75
2022/02/09 20:58:21;;;;;;;;;;;5.60;99.90;;;;;;5059387;28;19920;-73
2022/02/09 21:14:31;;;;;;;;;;;5.60;99.90;;;;;;5060920;28;19940;-74
2022/02/09 21:27:59;;;;;;;;;;;5.60;99.90;;;;;;5053343;28;19913;-73
2022/02/09 22:27:52;;;;;;;;;;;4.70;99.90;;;;;;5058860;28;19926;-76
2022/02/09 22:55:16;;;;;;;;;;;5.10;99.90;;;;;;5055954;28;19921;-74
2022/02/09 23:00:15;;;;;;;;;;;5.00;99.90;;;;;;5057915;28;19981;-73
2022/02/09 23:02:47;;;;;;;;;;;4.90;99.90;;;;;;5060114;28;19912;-74
2022/02/09 23:13:24;;;;;;;;;;;5.00;99.90;;;;;;5070438;28;20324;-73
2022/02/09 23:54:05;;;;;;;;;;;4.60;99.90;;;;;;5062929;28;19920;-71
2022/02/09 23:57:33;;;;;;;;;;;4.60;99.90;;;;;;5061805;28;19948;-75
